Briefing drone pour Mirebeau-sur-beze

Rechercher une autre localisation

Conditions de vol :


Nous sommes le : Mercredi 29 juin 2022
Il est 07:06 UTC (09:06 LT)

Lever de soleil : 03:19 UTC (05:19 LT)
Coucher de soleil : 20:05 UTC (22:05 LT)

Météo

L'essentiel des conditions de vol

VIGILANCE MÉTÉO FRANCE - Côte-dOr (21)
Pas de vigilances particulieres
CARTES DES FRONTS
METAR de LFSD
LFSD 290700Z AUTO 14004KT 100V200 CAVOK 21/16 Q1015

Date d'émission: 29/06/2022
Heure d'émission: 07:00 UTC
Vent: 140° (variable du 100° au 200°) pour 4 KT (7 km/h)
Visibilité horizontale: > 10 km
Plafond : Plafond et visibilité OK (CAVOK)
Température: 21 °C
Point de rosée: 16 °C
Humidité: 73%
Pression (QNH): 1015 hPa
TAF de LFSD
LFSD 010600Z 0100/0124 CNL

Conditions prévues :

Heure d'émission : Bulletin éffectué le 01 à 00:00 UTC
Prévision : Valide du 01 a 00:00 UTC au 01 a 23:59 UTC
Nuages : à 0ft (0 m)
WEBCAM POUR MIREBEAU-SUR-BEZE

Réglementation

Voler en sécurité

CARTES AERONAUTIQUE 1/500.000
CARTES VAC (LFSD)
SUP AIP




Chargement des AIP...
NOTAM (MIREBEAU-SUR-BEZE + Terrain à proximité / FIR )




Chargement des NOTAMS...
CONTACT PREFECTURE 21
Côte-dOr (21) : pref-drone@cote-dor.gouv.fr


Avertissement : Les données mises à disposition sont indicatives. Oxygène Drone ne pourra être tenu responsable de dégâts causés aux biens et aux personnes.